KOLV/OLV METAR and TAF weather

Enter ICAO airport designator
Station Type Date Time Source
KOLV METAR 2021/09/16 20:50 UTC NOAA

KOLV 162050Z 09007G12KT 10SM BKN028 27/21 A2994


Station Type Date Time Source
KOLV Decoded METAR 2021/09/16 20:50 UTC NOAA

Olive Branch, Olive Branch Airport, MS, United States (KOLV) 34-58-44N 089-47-13W
Sep 16, 2021 - 04:50 PM EDT / 2021.09.16 2050 UTC
Wind: from the E (090 degrees) at 8 MPH (7 KT) gusting to 14 MPH (12 KT):0
Visibility: 10 mile(s):0
Sky conditions: mostly cloudy
Temperature: 80 F (27 C)
Dew Point: 69 F (21 C)
Relative Humidity: 69%
Pressure (altimeter): 29.94 in. Hg (1013 hPa)
ob: KOLV 162050Z 09007G12KT 10SM BKN028 27/21 A2994
cycle: 21

Station Type Date Time Source
KOLV TAF UTC NOAA

Error!

Example: see airport list